createdAt,value
2023-05-06T00:00:00.702Z,4.4
2023-05-06T00:01:00.820Z,4.4
2023-05-06T00:02:00.611Z,4.4
2023-05-06T00:03:00.729Z,4.4
2023-05-06T00:04:00.897Z,4.4
2023-05-06T00:05:00.547Z,4.4
2023-05-06T00:06:00.590Z,4.4
2023-05-06T00:07:00.574Z,4.4
2023-05-06T00:08:00.631Z,4.4
2023-05-06T00:09:00.585Z,4.4
2023-05-06T00:10:00.586Z,4.6
2023-05-06T00:11:00.613Z,4.6
2023-05-06T00:12:00.613Z,4.6
2023-05-06T00:13:00.647Z,4.6
2023-05-06T00:14:00.603Z,4.6
2023-05-06T00:15:00.590Z,4.6
2023-05-06T00:16:00.630Z,4.6
2023-05-06T00:17:00.608Z,4.6
2023-05-06T00:18:00.735Z,4.6
2023-05-06T00:19:00.677Z,4.6
2023-05-06T00:20:00.672Z,4.9
2023-05-06T00:21:00.599Z,4.9
2023-05-06T00:22:00.624Z,4.9
2023-05-06T00:23:00.602Z,4.9
2023-05-06T00:24:00.597Z,4.9
2023-05-06T00:25:00.624Z,4.9
2023-05-06T00:26:00.591Z,4.9
2023-05-06T00:27:00.601Z,4.9
2023-05-06T00:28:00.586Z,4.9
2023-05-06T00:29:00.620Z,4.9
2023-05-06T00:30:00.593Z,4.4
2023-05-06T00:31:01.197Z,4.4
2023-05-06T00:32:00.597Z,4.4
2023-05-06T00:33:00.652Z,4.4
2023-05-06T00:34:00.574Z,4.4
2023-05-06T00:35:00.604Z,4.4
2023-05-06T00:36:00.575Z,4.4
2023-05-06T00:37:00.542Z,4.4
2023-05-06T00:38:10.431Z,4.4
2023-05-06T00:39:00.607Z,4.4
2023-05-06T00:40:01.044Z,4.6
2023-05-06T00:41:00.798Z,4.6
2023-05-06T00:42:00.662Z,4.6
2023-05-06T00:43:00.595Z,4.6
2023-05-06T00:44:00.579Z,4.6
2023-05-06T00:45:00.579Z,4.6
2023-05-06T00:46:00.751Z,4.6
2023-05-06T00:47:00.632Z,4.6
2023-05-06T00:48:01.732Z,4.6
2023-05-06T00:49:00.602Z,4.6
2023-05-06T00:50:01.337Z,4.2
2023-05-06T00:51:00.637Z,4.2
2023-05-06T00:52:00.746Z,4.2
2023-05-06T00:53:02.074Z,4.2
2023-05-06T00:54:00.951Z,4.2
2023-05-06T00:55:00.630Z,4.2
2023-05-06T00:56:00.620Z,4.2
2023-05-06T00:57:01.202Z,4.2
2023-05-06T00:58:00.624Z,4.2
2023-05-06T00:59:00.566Z,4.2
2023-05-06T01:00:00.635Z,4.2
2023-05-06T01:01:01.068Z,4.2
2023-05-06T01:02:00.746Z,4.2
2023-05-06T01:03:00.845Z,4.2
2023-05-06T01:04:00.745Z,4.2
2023-05-06T01:05:00.672Z,4.2
2023-05-06T01:06:10.459Z,4.2
2023-05-06T01:07:07.421Z,4.2
2023-05-06T01:08:03.895Z,4.2
2023-05-06T01:09:10.458Z,4.2
2023-05-06T01:10:00.556Z,4.5
2023-05-06T01:11:06.583Z,4.5
2023-05-06T01:12:10.439Z,4.5
2023-05-06T01:13:00.599Z,4.5
2023-05-06T01:14:07.332Z,4.5
2023-05-06T01:15:00.582Z,4.5
2023-05-06T01:16:01.162Z,4.5
2023-05-06T01:17:03.005Z,4.5
2023-05-06T01:19:01.313Z,4.5
2023-05-06T01:20:01.108Z,4.1
2023-05-06T01:21:01.074Z,4.1
2023-05-06T01:22:03.857Z,4.1
2023-05-06T01:23:00.690Z,4.1
2023-05-06T01:24:00.617Z,4.1
2023-05-06T01:25:00.667Z,4.1
2023-05-06T01:26:00.598Z,4.1
2023-05-06T01:27:00.622Z,4.1
2023-05-06T01:28:00.564Z,4.1
2023-05-06T01:29:00.657Z,4.1
2023-05-06T01:30:01.284Z,4.3
2023-05-06T01:31:04.393Z,4.3
2023-05-06T01:32:10.423Z,4.3
2023-05-06T01:33:08.356Z,4.3
2023-05-06T01:34:07.113Z,4.3
2023-05-06T01:35:10.658Z,4.3
2023-05-06T01:36:10.441Z,4.3
2023-05-06T01:37:00.606Z,4.3
2023-05-06T01:38:01.565Z,4.3
2023-05-06T01:39:03.939Z,4.3
2023-05-06T01:40:02.488Z,4.1
2023-05-06T01:41:00.808Z,4.1
2023-05-06T01:43:03.849Z,4.1
2023-05-06T01:44:00.970Z,4.1
2023-05-06T01:45:01.567Z,4.1
2023-05-06T01:46:01.061Z,4.1
2023-05-06T01:47:00.998Z,4.1
2023-05-06T01:48:00.889Z,4.1
2023-05-06T01:49:03.007Z,4.1
2023-05-06T01:50:00.772Z,4.6
2023-05-06T01:51:00.664Z,4.6
2023-05-06T01:52:00.866Z,4.6
2023-05-06T01:53:01.444Z,4.6
2023-05-06T01:54:00.731Z,4.6
2023-05-06T01:55:00.633Z,4.6
2023-05-06T01:56:00.628Z,4.6
2023-05-06T01:57:00.688Z,4.6
2023-05-06T01:58:00.593Z,4.6
2023-05-06T01:59:00.584Z,4.6
2023-05-06T02:00:00.702Z,4.5
2023-05-06T02:01:00.554Z,4.5
2023-05-06T02:02:00.713Z,4.5
2023-05-06T02:03:00.667Z,4.5
2023-05-06T02:04:00.737Z,4.5
2023-05-06T02:05:00.569Z,4.5
2023-05-06T02:06:00.566Z,4.5
2023-05-06T02:07:00.573Z,4.5
2023-05-06T02:08:00.648Z,4.5
2023-05-06T02:09:00.599Z,4.5
2023-05-06T02:10:00.600Z,5.4
2023-05-06T02:11:00.552Z,5.4
2023-05-06T02:12:00.569Z,5.4
2023-05-06T02:13:00.618Z,5.4
2023-05-06T02:14:00.554Z,5.4
2023-05-06T02:15:00.562Z,5.4
2023-05-06T02:16:00.645Z,5.4
2023-05-06T02:17:02.251Z,5.4
2023-05-06T02:18:00.600Z,5.4
2023-05-06T02:19:00.652Z,5.4
2023-05-06T02:20:00.782Z,4.9
2023-05-06T02:21:01.009Z,4.9
2023-05-06T02:22:00.569Z,4.9
2023-05-06T02:23:00.575Z,4.9
2023-05-06T02:24:00.593Z,4.9
2023-05-06T02:25:00.625Z,4.9
2023-05-06T02:26:00.570Z,4.9
2023-05-06T02:27:00.627Z,4.9
2023-05-06T02:28:00.604Z,4.9
2023-05-06T02:29:00.587Z,4.9
2023-05-06T02:30:01.163Z,4.7
2023-05-06T02:31:00.560Z,4.7
2023-05-06T02:32:00.768Z,4.7
2023-05-06T02:33:00.645Z,4.7
2023-05-06T02:34:00.582Z,4.7
2023-05-06T02:35:00.559Z,4.7
2023-05-06T02:36:00.553Z,4.7
2023-05-06T02:37:00.555Z,4.7
2023-05-06T02:38:00.626Z,4.7
2023-05-06T02:39:00.622Z,4.7
2023-05-06T02:40:00.648Z,4.8
2023-05-06T02:41:00.636Z,4.8
2023-05-06T02:42:00.679Z,4.8
2023-05-06T02:43:00.653Z,4.8
2023-05-06T02:44:00.604Z,4.8
2023-05-06T02:45:00.695Z,4.8
2023-05-06T02:46:00.720Z,4.8
2023-05-06T02:47:00.580Z,4.8
2023-05-06T02:48:00.696Z,4.8
2023-05-06T02:49:00.798Z,4.8
2023-05-06T02:50:00.693Z,4.7
2023-05-06T02:51:00.622Z,4.7
2023-05-06T02:52:00.676Z,4.7
2023-05-06T02:53:00.621Z,4.7
2023-05-06T02:54:00.734Z,4.7
2023-05-06T02:55:00.858Z,4.7
2023-05-06T02:56:00.564Z,4.7
2023-05-06T02:57:00.590Z,4.7
2023-05-06T02:58:00.626Z,4.7
2023-05-06T02:59:00.558Z,4.7
2023-05-06T03:00:00.642Z,5.0
2023-05-06T03:01:00.638Z,5.0
2023-05-06T03:02:00.580Z,5.0
2023-05-06T03:03:00.794Z,5.0
2023-05-06T03:04:00.603Z,5.0
2023-05-06T03:05:00.588Z,5.0
2023-05-06T03:06:00.619Z,5.0
2023-05-06T03:07:00.596Z,5.0
2023-05-06T03:08:00.616Z,5.0
2023-05-06T03:09:00.584Z,5.0
2023-05-06T03:10:00.592Z,5.3
2023-05-06T03:11:00.565Z,5.3
2023-05-06T03:12:00.588Z,5.3
2023-05-06T03:13:00.628Z,5.3
2023-05-06T03:14:00.634Z,5.3
2023-05-06T03:15:00.606Z,5.3
2023-05-06T03:16:00.952Z,5.3
2023-05-06T03:17:00.658Z,5.3
2023-05-06T03:18:00.621Z,5.3
2023-05-06T03:19:00.633Z,5.3
2023-05-06T03:20:00.772Z,4.9
2023-05-06T03:21:00.588Z,4.9
2023-05-06T03:22:00.563Z,4.9
2023-05-06T03:23:00.590Z,4.9
2023-05-06T03:24:00.617Z,4.9
2023-05-06T03:25:00.665Z,4.9
2023-05-06T03:26:00.592Z,4.9
2023-05-06T03:27:00.599Z,4.9
2023-05-06T03:28:00.581Z,4.9
2023-05-06T03:29:00.569Z,4.9
2023-05-06T03:30:00.609Z,5.4
2023-05-06T03:31:00.679Z,5.4
2023-05-06T03:32:04.036Z,5.4
2023-05-06T03:33:00.657Z,5.4
2023-05-06T03:34:00.618Z,5.4
2023-05-06T03:35:00.625Z,5.4
2023-05-06T03:36:00.654Z,5.4
2023-05-06T03:37:00.628Z,5.4
2023-05-06T03:38:00.590Z,5.4
2023-05-06T03:39:00.599Z,5.4
2023-05-06T03:40:00.592Z,6.4
2023-05-06T03:41:00.592Z,6.4
2023-05-06T03:42:00.573Z,6.4
2023-05-06T03:43:00.608Z,6.4
2023-05-06T03:44:00.563Z,6.4
2023-05-06T03:45:00.583Z,6.4
2023-05-06T03:46:00.717Z,6.4
2023-05-06T03:47:00.684Z,6.4
2023-05-06T03:48:00.613Z,6.4
2023-05-06T03:49:00.594Z,6.4
2023-05-06T03:50:00.594Z,6.5
2023-05-06T03:51:00.622Z,6.5
2023-05-06T03:52:00.625Z,6.5
2023-05-06T03:53:00.722Z,6.5
2023-05-06T03:54:00.607Z,6.5
2023-05-06T03:55:00.564Z,6.5
2023-05-06T03:56:00.564Z,6.5
2023-05-06T03:57:00.613Z,6.5
2023-05-06T03:58:00.735Z,6.5
2023-05-06T03:59:00.574Z,6.5
2023-05-06T04:00:00.536Z,6.8
2023-05-06T04:01:00.574Z,6.8
2023-05-06T04:02:00.642Z,6.8
2023-05-06T04:03:00.665Z,6.8
2023-05-06T04:04:00.650Z,6.8
2023-05-06T04:05:00.605Z,6.8
2023-05-06T04:06:00.575Z,6.8
2023-05-06T04:07:00.592Z,6.8
2023-05-06T04:08:00.604Z,6.8
2023-05-06T04:09:00.621Z,6.8
2023-05-06T04:10:00.577Z,6.7
2023-05-06T04:11:07.707Z,6.7
2023-05-06T04:12:01.586Z,6.7
2023-05-06T04:13:00.597Z,6.7
2023-05-06T04:14:00.593Z,6.7
2023-05-06T04:15:00.583Z,6.7
2023-05-06T04:16:00.630Z,6.7
2023-05-06T04:17:00.555Z,6.7
2023-05-06T04:18:00.622Z,6.7
2023-05-06T04:19:00.586Z,6.7
2023-05-06T04:20:00.975Z,7.1
2023-05-06T04:21:00.578Z,7.1
2023-05-06T04:22:00.567Z,7.1
2023-05-06T04:23:00.818Z,7.1
2023-05-06T04:24:00.578Z,7.1
2023-05-06T04:25:00.572Z,7.1
2023-05-06T04:26:00.597Z,7.1
2023-05-06T04:27:01.901Z,7.1
2023-05-06T04:28:00.567Z,7.1
2023-05-06T04:29:00.575Z,7.1
2023-05-06T04:30:00.591Z,7.1
2023-05-06T04:31:00.621Z,7.6
2023-05-06T04:32:00.662Z,7.6
2023-05-06T04:33:00.586Z,7.6
2023-05-06T04:34:00.595Z,7.6
2023-05-06T04:35:00.559Z,7.6
2023-05-06T04:36:00.605Z,7.6
2023-05-06T04:37:00.614Z,7.6
2023-05-06T04:38:00.584Z,7.6
2023-05-06T04:39:00.591Z,7.6
2023-05-06T04:40:00.994Z,7.6
2023-05-06T04:41:00.567Z,8.3
2023-05-06T04:42:00.652Z,8.3
2023-05-06T04:43:00.587Z,8.3
2023-05-06T04:44:00.587Z,8.3
2023-05-06T04:45:00.570Z,8.3
2023-05-06T04:46:00.599Z,8.3
2023-05-06T04:47:00.590Z,8.3
2023-05-06T04:48:00.606Z,8.3
2023-05-06T04:49:00.604Z,8.3
2023-05-06T04:50:00.613Z,8.3
2023-05-06T04:51:00.733Z,7.2
2023-05-06T04:52:00.650Z,7.2
2023-05-06T04:53:00.643Z,7.2
2023-05-06T04:54:00.597Z,7.2
2023-05-06T04:55:00.897Z,7.2
2023-05-06T04:56:00.574Z,7.2
2023-05-06T04:57:00.604Z,7.2
2023-05-06T04:58:00.564Z,7.2
2023-05-06T04:59:00.602Z,7.2
2023-05-06T05:00:00.602Z,7.2
2023-05-06T05:01:03.455Z,8.3
2023-05-06T05:02:00.630Z,8.3
2023-05-06T05:03:00.709Z,8.3
2023-05-06T05:04:00.632Z,8.3
2023-05-06T05:05:00.636Z,8.3
2023-05-06T05:06:00.636Z,8.3
2023-05-06T05:07:00.590Z,8.3
2023-05-06T05:08:00.627Z,8.3
2023-05-06T05:09:00.596Z,8.3
2023-05-06T05:10:00.582Z,8.3
2023-05-06T05:11:00.549Z,6.9
2023-05-06T05:12:01.132Z,6.9
2023-05-06T05:13:00.633Z,6.9
2023-05-06T05:14:02.133Z,6.9
2023-05-06T05:15:00.972Z,6.9
2023-05-06T05:16:00.585Z,6.9
2023-05-06T05:17:00.587Z,6.9
2023-05-06T05:18:00.627Z,6.9
2023-05-06T05:19:03.278Z,6.9
2023-05-06T05:20:00.607Z,6.9
2023-05-06T05:21:00.574Z,7.7
2023-05-06T05:22:00.585Z,7.7
2023-05-06T05:23:00.606Z,7.7
2023-05-06T05:24:00.576Z,7.7
2023-05-06T05:25:00.614Z,7.7
2023-05-06T05:26:00.702Z,7.7
2023-05-06T05:27:00.559Z,7.7
2023-05-06T05:28:00.574Z,7.7
2023-05-06T05:29:00.576Z,7.7
2023-05-06T05:30:00.621Z,7.7
2023-05-06T05:31:01.405Z,5.8
2023-05-06T05:32:00.559Z,5.8
2023-05-06T05:33:00.656Z,5.8
2023-05-06T05:34:00.734Z,5.8
2023-05-06T05:35:00.608Z,5.8
2023-05-06T05:36:00.626Z,5.8
2023-05-06T05:37:00.643Z,5.8
2023-05-06T05:38:00.597Z,5.8
2023-05-06T05:39:00.559Z,5.8
2023-05-06T05:40:00.969Z,5.8
2023-05-06T05:41:00.563Z,5.5
2023-05-06T05:42:00.576Z,5.5
2023-05-06T05:43:00.557Z,5.5
2023-05-06T05:44:00.597Z,5.5
2023-05-06T05:45:00.605Z,5.5
2023-05-06T05:46:00.675Z,5.5
2023-05-06T05:47:01.301Z,5.5
2023-05-06T05:48:00.741Z,5.5
2023-05-06T05:49:00.599Z,5.5
2023-05-06T05:50:01.065Z,5.5
2023-05-06T05:51:00.980Z,5.4
2023-05-06T05:52:00.561Z,5.4
2023-05-06T05:53:00.570Z,5.4
2023-05-06T05:54:00.563Z,5.4
2023-05-06T05:55:00.563Z,5.4
2023-05-06T05:56:00.568Z,5.4
2023-05-06T05:57:00.749Z,5.4
2023-05-06T05:58:00.585Z,5.4
2023-05-06T05:59:00.623Z,5.4
2023-05-06T06:00:00.554Z,5.4
2023-05-06T06:01:00.689Z,6.7
2023-05-06T06:02:00.595Z,6.7
2023-05-06T06:03:00.745Z,6.7
2023-05-06T06:04:00.830Z,6.7
2023-05-06T06:05:00.724Z,6.7
2023-05-06T06:06:00.568Z,6.7
2023-05-06T06:07:00.576Z,6.7
2023-05-06T06:08:02.966Z,6.7
2023-05-06T06:09:00.600Z,6.7
2023-05-06T06:10:00.678Z,6.7
2023-05-06T06:11:00.590Z,6.3
2023-05-06T06:12:00.600Z,6.3
2023-05-06T06:13:00.632Z,6.3
2023-05-06T06:14:00.567Z,6.3
2023-05-06T06:15:00.663Z,6.3
2023-05-06T06:16:00.687Z,6.3
2023-05-06T06:17:00.608Z,6.3
2023-05-06T06:18:00.601Z,6.3
2023-05-06T06:19:00.654Z,6.3
2023-05-06T06:20:00.622Z,6.3
2023-05-06T06:21:00.637Z,5.7
2023-05-06T06:22:00.552Z,5.7
2023-05-06T06:23:00.574Z,5.7
2023-05-06T06:24:00.599Z,5.7
2023-05-06T06:25:00.600Z,5.7
2023-05-06T06:26:01.618Z,5.7
2023-05-06T06:27:00.593Z,5.7
2023-05-06T06:28:00.562Z,5.7
2023-05-06T06:29:00.583Z,5.7
2023-05-06T06:30:00.595Z,5.7
2023-05-06T06:31:00.644Z,4.3
2023-05-06T06:32:01.846Z,4.3
2023-05-06T06:33:00.647Z,4.3
2023-05-06T06:34:00.551Z,4.3
2023-05-06T06:35:00.578Z,4.3
2023-05-06T06:36:00.613Z,4.3
2023-05-06T06:37:00.597Z,4.3
2023-05-06T06:38:00.574Z,4.3
2023-05-06T06:39:00.581Z,4.3
2023-05-06T06:40:00.575Z,4.3
2023-05-06T06:41:00.543Z,3.4
2023-05-06T06:42:00.560Z,3.4
2023-05-06T06:43:00.804Z,3.4
2023-05-06T06:44:00.580Z,3.4
2023-05-06T06:45:00.758Z,3.4
2023-05-06T06:46:00.717Z,3.4
2023-05-06T06:47:00.695Z,3.4
2023-05-06T06:48:00.635Z,3.4
2023-05-06T06:49:00.638Z,3.4
2023-05-06T06:50:00.766Z,3.4
2023-05-06T06:51:00.601Z,3.2
2023-05-06T06:52:00.552Z,3.2
2023-05-06T06:53:00.661Z,3.2
2023-05-06T06:54:00.734Z,3.2
2023-05-06T06:55:01.251Z,3.2
2023-05-06T06:56:00.579Z,3.2
2023-05-06T06:57:00.542Z,3.2
2023-05-06T06:58:01.619Z,3.2
2023-05-06T06:59:00.581Z,3.2
2023-05-06T07:00:00.601Z,3.2
2023-05-06T07:01:00.593Z,3.2
2023-05-06T07:02:01.066Z,3.2
2023-05-06T07:03:00.628Z,3.2
2023-05-06T07:04:00.684Z,3.2
2023-05-06T07:05:01.416Z,3.2
2023-05-06T07:06:00.604Z,3.2
2023-05-06T07:07:00.586Z,3.2
2023-05-06T07:08:00.594Z,3.2
2023-05-06T07:09:00.578Z,3.2
2023-05-06T07:10:00.587Z,3.2
2023-05-06T07:11:00.582Z,3.2
2023-05-06T07:12:00.575Z,3.2
2023-05-06T07:13:00.619Z,3.2
2023-05-06T07:14:00.603Z,3.2
2023-05-06T07:15:00.947Z,3.2
2023-05-06T07:16:00.718Z,3.2
2023-05-06T07:17:00.644Z,3.2
2023-05-06T07:18:00.646Z,3.2
2023-05-06T07:19:00.599Z,3.2
2023-05-06T07:20:00.611Z,3.2
2023-05-06T07:21:00.562Z,3.4
2023-05-06T07:22:00.636Z,3.4
2023-05-06T07:23:00.615Z,3.4
2023-05-06T07:24:00.613Z,3.4
2023-05-06T07:25:00.670Z,3.4
2023-05-06T07:26:00.585Z,3.4
2023-05-06T07:27:00.769Z,3.4
2023-05-06T07:28:00.607Z,3.4
2023-05-06T07:29:00.627Z,3.4
2023-05-06T07:30:00.645Z,3.4
2023-05-06T07:31:00.618Z,1.8
2023-05-06T07:32:00.609Z,1.8
2023-05-06T07:33:00.715Z,1.8
2023-05-06T07:34:00.630Z,1.8
2023-05-06T07:35:00.628Z,1.8
2023-05-06T07:36:00.590Z,1.8
2023-05-06T07:37:00.583Z,1.8
2023-05-06T07:38:00.682Z,1.8
2023-05-06T07:39:00.584Z,1.8
2023-05-06T07:40:00.631Z,1.8
2023-05-06T07:41:00.559Z,1.9
2023-05-06T07:42:00.607Z,1.9
2023-05-06T07:43:01.351Z,1.9
2023-05-06T07:44:00.569Z,1.9
2023-05-06T07:45:00.656Z,1.9
2023-05-06T07:46:00.617Z,1.9
2023-05-06T07:47:00.747Z,1.9
2023-05-06T07:48:00.683Z,1.9
2023-05-06T07:49:00.642Z,1.9
2023-05-06T07:50:00.776Z,1.9
2023-05-06T07:51:00.646Z,1.7
2023-05-06T07:52:00.576Z,1.7
2023-05-06T07:53:00.741Z,1.7
2023-05-06T07:54:00.580Z,1.7
2023-05-06T07:55:00.602Z,1.7
2023-05-06T07:56:00.588Z,1.7
2023-05-06T07:57:00.656Z,1.7
2023-05-06T07:58:00.546Z,1.7
2023-05-06T07:59:00.599Z,1.7
2023-05-06T08:00:00.828Z,1.7
2023-05-06T08:01:00.558Z,1.3
2023-05-06T08:02:01.068Z,1.3
2023-05-06T08:03:00.611Z,1.3
2023-05-06T08:04:00.789Z,1.3
2023-05-06T08:05:00.540Z,1.3
2023-05-06T08:06:00.552Z,1.3
2023-05-06T08:07:00.595Z,1.3
2023-05-06T08:08:00.622Z,1.3
2023-05-06T08:09:00.567Z,1.3
2023-05-06T08:10:00.568Z,1.3
2023-05-06T08:11:00.650Z,1.2
2023-05-06T08:12:00.573Z,1.2
2023-05-06T08:13:00.635Z,1.2
2023-05-06T08:14:00.590Z,1.2
2023-05-06T08:15:01.059Z,1.2
2023-05-06T08:16:00.615Z,1.2
2023-05-06T08:17:00.613Z,1.2
2023-05-06T08:18:13.749Z,1.2
2023-05-06T08:19:00.586Z,1.2
2023-05-06T08:20:00.588Z,1.2
2023-05-06T08:21:00.613Z,1.6
2023-05-06T08:22:00.655Z,1.6
2023-05-06T08:23:00.554Z,1.6
2023-05-06T08:24:00.565Z,1.6
2023-05-06T08:25:00.601Z,1.6
2023-05-06T08:26:00.542Z,1.6
2023-05-06T08:27:00.557Z,1.6
2023-05-06T08:28:00.589Z,1.6
2023-05-06T08:29:00.583Z,1.6
2023-05-06T08:30:00.579Z,1.6
2023-05-06T08:31:00.585Z,1.3
2023-05-06T08:32:00.653Z,1.3
2023-05-06T08:33:01.053Z,1.3
2023-05-06T08:34:00.539Z,1.3
2023-05-06T08:35:00.702Z,1.3
2023-05-06T08:36:00.572Z,1.3
2023-05-06T08:37:00.952Z,1.3
2023-05-06T08:38:00.561Z,1.3
2023-05-06T08:39:00.555Z,1.3
2023-05-06T08:40:00.795Z,1.3
2023-05-06T08:41:06.635Z,1.6
2023-05-06T08:42:02.117Z,1.6
2023-05-06T08:43:01.722Z,1.6
2023-05-06T08:44:00.929Z,1.6
2023-05-06T08:45:00.630Z,1.6
2023-05-06T08:46:00.727Z,1.6
2023-05-06T08:47:00.669Z,1.6
2023-05-06T08:48:00.681Z,1.6
2023-05-06T08:49:00.603Z,1.6
2023-05-06T08:50:00.666Z,1.6
2023-05-06T08:51:01.948Z,2.5
2023-05-06T08:52:03.545Z,2.5
2023-05-06T08:53:00.865Z,2.5
2023-05-06T08:54:00.660Z,2.5
2023-05-06T08:55:01.870Z,2.5
2023-05-06T08:56:01.869Z,2.5
2023-05-06T08:57:02.436Z,2.5
2023-05-06T08:58:01.278Z,2.5
2023-05-06T08:59:00.622Z,2.5
2023-05-06T09:00:00.868Z,2.5
2023-05-06T09:01:01.727Z,4.7
2023-05-06T09:02:00.966Z,4.7
2023-05-06T09:03:00.738Z,4.7
2023-05-06T09:04:01.995Z,4.7
2023-05-06T09:05:01.533Z,4.7
2023-05-06T09:06:00.757Z,4.7
2023-05-06T09:07:00.618Z,4.7
2023-05-06T09:08:00.631Z,4.7
2023-05-06T09:09:00.601Z,4.7
2023-05-06T09:10:04.112Z,4.7
2023-05-06T09:11:00.706Z,8.4
2023-05-06T09:12:00.615Z,8.4
2023-05-06T09:13:00.692Z,8.4
2023-05-06T09:14:10.520Z,8.4
2023-05-06T09:15:00.643Z,8.4
2023-05-06T09:16:00.670Z,8.4
2023-05-06T09:17:00.788Z,8.4
2023-05-06T09:18:00.688Z,8.4
2023-05-06T09:19:00.670Z,8.4
2023-05-06T09:20:00.732Z,8.4
2023-05-06T09:21:03.065Z,8.2
2023-05-06T09:22:00.610Z,8.2
2023-05-06T09:23:01.392Z,8.2
2023-05-06T09:24:01.341Z,8.2
2023-05-06T09:25:00.665Z,8.2
2023-05-06T09:26:00.671Z,8.2
2023-05-06T09:27:00.718Z,8.2
2023-05-06T09:28:02.769Z,8.2
2023-05-06T09:29:01.018Z,8.2
2023-05-06T09:30:02.289Z,8.2
2023-05-06T09:31:00.674Z,7.2
2023-05-06T09:32:03.373Z,7.2
2023-05-06T09:33:01.736Z,7.2
2023-05-06T09:34:00.651Z,7.2
2023-05-06T09:35:01.177Z,7.2
2023-05-06T09:36:00.638Z,7.2
2023-05-06T09:37:01.332Z,7.2
2023-05-06T09:38:00.705Z,7.2
2023-05-06T09:39:00.684Z,7.2
2023-05-06T09:40:00.714Z,7.2
2023-05-06T09:41:02.586Z,5.5
2023-05-06T09:42:00.697Z,5.5
2023-05-06T09:43:01.068Z,5.5
2023-05-06T09:44:00.783Z,5.5
2023-05-06T09:45:07.551Z,5.5
2023-05-06T09:46:00.784Z,5.5
2023-05-06T09:47:00.599Z,5.5
2023-05-06T09:48:00.922Z,5.5
2023-05-06T09:49:01.005Z,5.5
2023-05-06T09:50:02.321Z,5.5
2023-05-06T09:51:01.346Z,4.2
2023-05-06T09:52:00.727Z,4.2
2023-05-06T09:53:02.751Z,4.2
2023-05-06T09:54:01.050Z,4.2
2023-05-06T09:55:02.361Z,4.2
2023-05-06T09:56:01.787Z,4.2
2023-05-06T09:57:01.318Z,4.2
2023-05-06T09:58:01.245Z,4.2
2023-05-06T09:59:01.603Z,4.2
2023-05-06T10:00:01.563Z,4.2
2023-05-06T10:01:02.023Z,3.5
2023-05-06T10:02:01.142Z,3.5
2023-05-06T10:03:01.072Z,3.5
2023-05-06T10:04:04.691Z,3.5
2023-05-06T10:05:03.570Z,3.5
2023-05-06T10:06:01.705Z,3.5
2023-05-06T10:07:02.069Z,3.5
2023-05-06T10:08:01.114Z,3.5
2023-05-06T10:09:00.860Z,3.5
2023-05-06T10:10:01.400Z,3.5
2023-05-06T10:11:00.818Z,5.6
2023-05-06T10:12:01.110Z,5.6
2023-05-06T10:13:01.924Z,5.6
2023-05-06T10:14:01.368Z,5.6
2023-05-06T10:15:00.648Z,5.6
2023-05-06T10:16:00.700Z,5.6
2023-05-06T10:17:01.251Z,5.6
2023-05-06T10:18:01.457Z,5.6
2023-05-06T10:19:01.958Z,5.6
2023-05-06T10:20:01.517Z,5.6
2023-05-06T10:21:02.578Z,6.3
2023-05-06T10:22:05.800Z,6.3
2023-05-06T10:23:05.659Z,6.3
2023-05-06T10:24:10.393Z,6.3
2023-05-06T10:25:09.397Z,6.3
2023-05-06T10:26:04.866Z,6.3
2023-05-06T10:27:01.541Z,6.3
2023-05-06T10:28:05.513Z,6.3
2023-05-06T10:29:00.682Z,6.3
2023-05-06T10:30:00.572Z,6.3
2023-05-06T10:31:02.981Z,10.1
2023-05-06T10:32:01.689Z,10.1
2023-05-06T10:33:09.292Z,10.1
2023-05-06T10:34:03.743Z,10.1
2023-05-06T10:35:04.406Z,10.1
2023-05-06T10:36:01.552Z,10.1
2023-05-06T10:37:00.872Z,10.1
2023-05-06T10:38:02.593Z,10.1
2023-05-06T10:39:01.155Z,10.1
2023-05-06T10:40:00.822Z,10.1
2023-05-06T10:41:01.210Z,9.7
2023-05-06T10:42:00.663Z,9.7
2023-05-06T10:43:10.412Z,9.7
2023-05-06T10:44:00.562Z,9.7
2023-05-06T10:45:02.346Z,9.7
2023-05-06T10:46:02.711Z,9.7
2023-05-06T10:47:00.582Z,9.7
2023-05-06T10:48:00.600Z,9.7
2023-05-06T10:49:03.897Z,9.7
2023-05-06T10:50:10.491Z,9.7
2023-05-06T10:51:10.533Z,8.1
2023-05-06T10:52:10.478Z,8.1
2023-05-06T10:53:00.579Z,8.1
2023-05-06T10:54:00.584Z,8.1
2023-05-06T10:55:10.699Z,8.1
2023-05-06T10:56:07.837Z,8.1
2023-05-06T10:57:00.577Z,8.1
2023-05-06T10:58:10.416Z,8.1
2023-05-06T10:59:01.406Z,8.1
2023-05-06T11:00:00.670Z,8.1
2023-05-06T11:01:00.606Z,7.5
2023-05-06T11:02:01.671Z,7.5
2023-05-06T11:03:01.762Z,7.5
2023-05-06T11:04:04.589Z,7.5
2023-05-06T11:05:00.604Z,7.5
2023-05-06T11:06:00.692Z,7.5
2023-05-06T11:07:10.432Z,7.5
2023-05-06T11:08:08.178Z,7.5
2023-05-06T11:09:00.698Z,7.5
2023-05-06T11:10:01.530Z,7.5
2023-05-06T11:11:00.619Z,7.0
2023-05-06T11:12:02.710Z,7.0
2023-05-06T11:13:10.513Z,7.0
2023-05-06T11:14:10.450Z,7.0
2023-05-06T11:15:10.716Z,7.0
2023-05-06T11:16:00.578Z,7.0
2023-05-06T11:17:02.388Z,7.0
2023-05-06T11:18:10.437Z,7.0
2023-05-06T11:19:01.124Z,7.0
2023-05-06T11:20:10.791Z,7.0
2023-05-06T11:21:00.557Z,5.4
2023-05-06T11:22:01.290Z,5.4
2023-05-06T11:23:00.592Z,5.4
2023-05-06T11:24:00.549Z,5.4
2023-05-06T11:25:05.109Z,5.4
2023-05-06T11:26:00.719Z,5.4
2023-05-06T11:27:00.593Z,5.4
2023-05-06T11:28:05.461Z,5.4
2023-05-06T11:29:01.580Z,5.4
2023-05-06T11:30:00.615Z,5.4
2023-05-06T11:31:01.022Z,5.2
2023-05-06T11:32:00.720Z,5.2
2023-05-06T11:33:05.203Z,5.2
2023-05-06T11:34:03.903Z,5.2
2023-05-06T11:35:00.621Z,5.2
2023-05-06T11:36:01.157Z,5.2
2023-05-06T11:37:02.950Z,5.2
2023-05-06T11:38:00.735Z,5.2
2023-05-06T11:39:05.255Z,5.2
2023-05-06T11:40:00.621Z,5.2
2023-05-06T11:41:00.580Z,4.7
2023-05-06T11:42:03.416Z,4.7
2023-05-06T11:43:10.438Z,4.7
2023-05-06T11:44:00.585Z,4.7
2023-05-06T11:45:00.597Z,4.7
2023-05-06T11:46:00.710Z,4.7
2023-05-06T11:47:01.491Z,4.7
2023-05-06T11:48:00.613Z,4.7
2023-05-06T11:49:00.626Z,4.7
2023-05-06T11:50:02.275Z,4.7
2023-05-06T11:51:00.573Z,3.0
2023-05-06T11:52:02.052Z,3.0
2023-05-06T11:53:00.989Z,3.0
2023-05-06T11:54:04.854Z,3.0
2023-05-06T11:55:00.585Z,3.0
2023-05-06T11:56:00.822Z,3.0
2023-05-06T11:57:00.619Z,3.0
2023-05-06T11:58:00.833Z,3.0
2023-05-06T11:59:00.578Z,3.0
2023-05-06T12:00:00.639Z,3.0
2023-05-06T12:01:02.120Z,2.8
2023-05-06T12:02:01.665Z,2.8
2023-05-06T12:03:00.666Z,2.8
2023-05-06T12:04:00.878Z,2.8
2023-05-06T12:05:01.483Z,2.8
2023-05-06T12:06:00.616Z,2.8
2023-05-06T12:07:01.374Z,2.8
2023-05-06T12:08:00.681Z,2.8
2023-05-06T12:09:03.647Z,2.8
2023-05-06T12:10:00.815Z,2.8
2023-05-06T12:11:03.901Z,2.1
2023-05-06T12:12:01.798Z,2.1
2023-05-06T12:13:00.705Z,2.1
2023-05-06T12:14:03.530Z,2.1
2023-05-06T12:15:01.077Z,2.1
2023-05-06T12:16:00.692Z,2.1
2023-05-06T12:17:00.569Z,2.1
2023-05-06T12:18:01.205Z,2.1
2023-05-06T12:19:01.033Z,2.1
2023-05-06T12:20:00.598Z,2.1
2023-05-06T12:21:01.221Z,2.3
2023-05-06T12:22:10.479Z,2.3
2023-05-06T12:23:04.651Z,2.3
2023-05-06T12:24:00.547Z,2.3
2023-05-06T12:25:10.608Z,2.3
2023-05-06T12:26:00.515Z,2.3
2023-05-06T12:27:00.567Z,2.3
2023-05-06T12:28:00.711Z,2.3
2023-05-06T12:29:08.684Z,2.3
2023-05-06T12:30:00.811Z,2.3
2023-05-06T12:31:10.446Z,2.0
2023-05-06T12:32:08.458Z,2.0
2023-05-06T12:33:01.066Z,2.0
2023-05-06T12:34:01.365Z,2.0
2023-05-06T12:35:00.607Z,2.0
2023-05-06T12:36:07.959Z,2.0
2023-05-06T12:37:00.558Z,2.0
2023-05-06T12:38:10.460Z,2.0
2023-05-06T12:39:00.812Z,2.0
2023-05-06T12:40:00.581Z,2.0
2023-05-06T12:41:00.575Z,2.0
2023-05-06T12:42:00.574Z,2.0
2023-05-06T12:43:00.559Z,2.0
2023-05-06T12:44:00.852Z,2.0
2023-05-06T12:45:10.465Z,2.0
2023-05-06T12:46:02.457Z,2.0
2023-05-06T12:47:05.200Z,2.0
2023-05-06T12:48:01.786Z,2.0
2023-05-06T12:49:01.345Z,2.0
2023-05-06T12:50:00.622Z,2.0
2023-05-06T12:51:10.469Z,2.1
2023-05-06T12:52:08.528Z,2.1
2023-05-06T12:53:00.992Z,2.1
2023-05-06T12:54:00.590Z,2.1
2023-05-06T12:55:00.747Z,2.1
2023-05-06T12:56:00.581Z,2.1
2023-05-06T12:57:00.717Z,2.1
2023-05-06T12:58:00.549Z,2.1
2023-05-06T12:59:01.172Z,2.1
2023-05-06T13:00:02.074Z,2.1
2023-05-06T13:01:00.620Z,2.6
2023-05-06T13:02:00.978Z,2.6
2023-05-06T13:03:00.675Z,2.6
2023-05-06T13:04:00.585Z,2.6
2023-05-06T13:05:00.602Z,2.6
2023-05-06T13:06:00.641Z,2.6
2023-05-06T13:07:00.597Z,2.6
2023-05-06T13:08:00.573Z,2.6
2023-05-06T13:09:00.580Z,2.6
2023-05-06T13:10:00.695Z,2.6
2023-05-06T13:11:00.556Z,1.5
2023-05-06T13:12:00.611Z,1.5
2023-05-06T13:13:00.635Z,1.5
2023-05-06T13:14:00.606Z,1.5
2023-05-06T13:15:00.699Z,1.5
2023-05-06T13:16:00.581Z,1.5
2023-05-06T13:17:00.719Z,1.5
2023-05-06T13:18:00.621Z,1.5
2023-05-06T13:19:01.489Z,1.5
2023-05-06T13:20:02.221Z,1.5
2023-05-06T13:21:00.619Z,1.7
2023-05-06T13:22:01.081Z,1.7
2023-05-06T13:23:00.581Z,1.7
2023-05-06T13:24:00.560Z,1.7
2023-05-06T13:25:00.554Z,1.7
2023-05-06T13:26:05.330Z,1.7
2023-05-06T13:27:00.604Z,1.7
2023-05-06T13:28:00.652Z,1.7
2023-05-06T13:29:00.694Z,1.7
2023-05-06T13:30:00.580Z,1.7
2023-05-06T13:31:00.638Z,1.9
2023-05-06T13:32:00.997Z,1.9
2023-05-06T13:33:00.595Z,1.9
2023-05-06T13:34:00.627Z,1.9
2023-05-06T13:35:00.584Z,1.9
2023-05-06T13:36:01.240Z,1.9
2023-05-06T13:37:00.594Z,1.9
2023-05-06T13:38:00.599Z,1.9
2023-05-06T13:39:00.655Z,1.9
2023-05-06T13:40:00.625Z,1.9
2023-05-06T13:41:00.574Z,1.8
2023-05-06T13:42:00.579Z,1.8
2023-05-06T13:43:00.608Z,1.8
2023-05-06T13:44:00.593Z,1.8
2023-05-06T13:45:00.638Z,1.8
2023-05-06T13:46:00.675Z,1.8
2023-05-06T13:47:00.603Z,1.8